Nicolet, Canada
Current Conditions -  °F | °C
As of 12:00 PM on Sunday 23 Nov 2014 (Local Time) from CYRQ Reporting Station
Haze Haze  
Wind Chill: 29°   Ceiling: 300
Heat Index: 36°   Visibility: 0.75mi
Dew Point: 36°   Wind: 9mph
Humidity: 100%   Direction: 220°SW
Pressure: 30"   Gusts: NA
Location:  46.43°N, 72.39°W
Report Text: CYRQ 231700Z AUTO 22008KT 3/4SM BR OVC003 02/02 A3000 RMK SLP162
Loading
Personal Weather Stations






























Interactive Weather Map New forecast layout! Learn more

10-Day Weather Forecast

Advertisements
Track Severe Weather on mobile